Time;durP1;ratioP1;P1;durP2;ratioP2;P2;SDS_P1;SDS_P2;PMS_P1;PMS_P2;Temp;Humidity;BMP_temperature;BMP_pressure;BME280_temperature;BME280_humidity;BME280_pressure;Samples;Min_cycle;Max_cycle;Signal;HPM_P1;HPM_P2
2023/07/29 00:01:34;;;;;;;4.60;4.20;;;19.30;99.90;;;;;;5011250;28;20200;-88
2023/07/29 00:04:00;;;;;;;5.10;3.80;;;19.30;99.90;;;;;;5011776;28;20266;-88
2023/07/29 00:06:26;;;;;;;4.43;4.03;;;19.30;99.90;;;;;;5011862;28;20575;-88
2023/07/29 00:08:51;;;;;;;7.73;4.00;;;19.30;99.90;;;;;;5012487;28;20168;-88
2023/07/29 00:11:17;;;;;;;4.40;4.10;;;19.30;99.90;;;;;;5011255;28;20192;-88
2023/07/29 00:13:43;;;;;;;4.60;4.30;;;19.30;99.90;;;;;;5010858;28;20168;-88
2023/07/29 00:16:08;;;;;;;4.20;3.90;;;19.30;99.90;;;;;;5011595;28;20258;-88
2023/07/29 00:18:34;;;;;;;4.13;3.83;;;19.30;99.90;;;;;;5011628;28;20254;-88
2023/07/29 00:21:00;;;;;;;5.53;4.00;;;19.30;99.90;;;;;;5011375;28;20223;-89
2023/07/29 00:23:25;;;;;;;4.03;3.73;;;19.30;99.90;;;;;;5011258;28;20183;-88
2023/07/29 00:25:51;;;;;;;4.37;4.07;;;19.30;99.90;;;;;;5011394;28;20219;-88
2023/07/29 00:28:17;;;;;;;4.50;4.13;;;19.30;99.90;;;;;;5012947;28;20226;-89
2023/07/29 00:30:42;;;;;;;4.63;4.27;;;19.30;99.90;;;;;;5022197;28;20231;-86
2023/07/29 00:33:08;;;;;;;4.77;4.27;;;19.30;99.90;;;;;;5017470;28;20733;-89
2023/07/29 00:35:35;;;;;;;4.50;4.20;;;19.40;99.90;;;;;;5014041;28;20183;-88
2023/07/29 00:38:00;;;;;;;4.80;4.30;;;19.30;99.90;;;;;;5017273;28;20247;-89
2023/07/29 00:40:28;;;;;;;5.10;4.60;;;19.30;99.90;;;;;;5014637;28;20208;-89
2023/07/29 00:42:53;;;;;;;4.57;4.20;;;19.30;99.90;;;;;;5014385;28;20319;-89
2023/07/29 00:45:19;;;;;;;6.13;4.10;;;19.30;99.90;;;;;;5014822;28;20244;-89
2023/07/29 00:47:45;;;;;;;4.23;3.90;;;19.30;99.90;;;;;;5014925;28;20218;-88
2023/07/29 00:50:14;;;;;;;4.20;3.90;;;19.20;99.90;;;;;;5016207;28;20297;-88
2023/07/29 00:52:39;;;;;;;4.30;3.90;;;19.30;99.90;;;;;;5015311;28;20199;-88
2023/07/29 00:55:06;;;;;;;4.57;4.27;;;19.30;99.90;;;;;;5015447;28;20179;-88
2023/07/29 00:57:33;;;;;;;4.93;3.63;;;19.20;99.90;;;;;;5016000;28;20191;-89
2023/07/29 01:00:00;;;;;;;4.87;4.43;;;19.20;99.90;;;;;;5015719;28;20204;-88
2023/07/29 01:02:26;;;;;;;10.40;4.13;;;19.20;99.90;;;;;;5017415;28;20175;-88
2023/07/29 01:04:54;;;;;;;4.43;4.13;;;19.20;99.90;;;;;;5017487;28;20246;-88
2023/07/29 01:07:43;;;;;;;4.73;4.43;;;19.20;99.90;;;;;;5019266;28;20235;-88
2023/07/29 01:10:30;;;;;;;5.17;4.60;;;19.20;99.90;;;;;;5025348;23;20334;-71
2023/07/29 01:13:11;;;;;;;6.93;4.63;;;19.10;99.90;;;;;;5013022;28;20299;-72
2023/07/29 01:16:20;;;;;;;7.57;4.20;;;19.20;99.90;;;;;;5046622;28;20255;-73
2023/07/29 01:18:49;;;;;;;4.73;4.33;;;19.20;99.90;;;;;;4972900;28;20738;-73
2023/07/29 01:21:16;;;;;;;4.80;4.27;;;19.20;99.90;;;;;;5006628;28;20180;-72
2023/07/29 01:23:42;;;;;;;4.47;4.07;;;19.20;99.90;;;;;;5040311;22;20278;-72
2023/07/29 01:26:08;;;;;;;6.67;4.57;;;19.20;99.90;;;;;;5013721;28;20228;-72
2023/07/29 01:28:34;;;;;;;4.63;4.27;;;19.20;99.90;;;;;;5014012;28;20255;-72
2023/07/29 01:31:23;;;;;;;4.83;4.33;;;19.10;99.90;;;;;;5012393;28;20238;-72
2023/07/29 01:33:59;;;;;;;4.27;3.97;;;19.20;99.90;;;;;;5013593;28;20215;-72
2023/07/29 01:36:29;;;;;;;4.90;4.33;;;19.20;99.90;;;;;;5013506;28;20285;-72
2023/07/29 01:38:56;;;;;;;4.30;3.97;;;19.20;99.90;;;;;;5011822;28;20178;-72
2023/07/29 01:41:24;;;;;;;4.30;4.00;;;19.20;99.90;;;;;;5011516;28;20259;-72
2023/07/29 01:43:50;;;;;;;5.10;4.10;;;19.30;99.90;;;;;;5013532;28;20211;-72
2023/07/29 01:46:16;;;;;;;4.10;3.80;;;19.30;99.90;;;;;;5011996;28;20197;-71
2023/07/29 01:48:42;;;;;;;4.30;4.00;;;19.30;99.90;;;;;;5012011;28;20530;-71
2023/07/29 01:51:09;;;;;;;6.37;4.20;;;19.30;99.90;;;;;;5013467;28;20168;-72
2023/07/29 01:53:34;;;;;;;3.77;3.43;;;19.40;99.90;;;;;;5013098;28;20198;-72
2023/07/29 01:56:01;;;;;;;5.53;3.90;;;19.30;99.90;;;;;;5012170;28;20645;-72
2023/07/29 01:58:27;;;;;;;4.20;3.90;;;19.30;99.90;;;;;;5011903;28;20710;-72
2023/07/29 02:00:52;;;;;;;4.33;4.00;;;19.30;99.90;;;;;;5013141;28;20176;-72
2023/07/29 02:03:18;;;;;;;4.57;3.80;;;19.30;99.90;;;;;;5012689;28;20327;-73
2023/07/29 02:05:43;;;;;;;3.90;3.60;;;19.30;99.90;;;;;;5012908;28;20180;-73
2023/07/29 02:08:10;;;;;;;4.07;3.77;;;19.30;99.90;;;;;;5013498;28;20183;-73
2023/07/29 02:10:36;;;;;;;6.40;3.60;;;19.30;99.90;;;;;;5011912;28;20191;-73
2023/07/29 02:13:02;;;;;;;4.53;3.60;;;19.30;99.90;;;;;;5011232;28;20587;-73
2023/07/29 02:15:28;;;;;;;4.03;3.73;;;19.20;99.90;;;;;;5011665;28;20648;-73
2023/07/29 02:17:54;;;;;;;4.20;3.80;;;19.20;99.90;;;;;;5013379;28;20206;-73
2023/07/29 02:20:19;;;;;;;4.00;3.70;;;19.30;99.90;;;;;;5012974;28;20168;-73
2023/07/29 02:22:45;;;;;;;4.77;3.50;;;19.30;99.90;;;;;;5013352;28;20175;-73
2023/07/29 02:25:11;;;;;;;5.23;3.80;;;19.30;99.90;;;;;;5011557;28;20232;-73
2023/07/29 02:27:36;;;;;;;4.87;3.73;;;19.30;99.90;;;;;;5012662;28;20299;-73
2023/07/29 02:30:03;;;;;;;5.10;4.60;;;19.30;99.90;;;;;;5014489;28;20194;-72
2023/07/29 02:32:29;;;;;;;4.30;4.00;;;19.30;99.90;;;;;;5011665;28;20611;-74
2023/07/29 02:34:54;;;;;;;4.50;4.10;;;19.30;99.90;;;;;;5011809;28;20238;-72
2023/07/29 02:37:20;;;;;;;7.07;4.20;;;19.20;99.90;;;;;;5013558;28;20175;-73
2023/07/29 02:39:46;;;;;;;4.30;4.00;;;19.20;99.90;;;;;;5012961;28;20176;-73
2023/07/29 02:42:11;;;;;;;4.40;4.00;;;19.10;99.90;;;;;;5012961;28;20223;-73
2023/07/29 02:44:37;;;;;;;4.30;4.00;;;19.10;99.90;;;;;;5012192;28;20204;-73
2023/07/29 02:47:03;;;;;;;4.77;4.13;;;19.10;99.90;;;;;;5013338;28;20613;-73
2023/07/29 02:49:29;;;;;;;5.30;4.50;;;19.10;99.90;;;;;;5012149;28;20609;-72
2023/07/29 02:51:54;;;;;;;5.80;4.57;;;19.10;99.90;;;;;;5012823;28;20673;-73
2023/07/29 02:54:20;;;;;;;4.67;4.37;;;19.10;99.90;;;;;;5012129;28;20438;-73
2023/07/29 02:56:46;;;;;;;4.63;4.23;;;19.10;99.90;;;;;;5011707;28;20176;-73
2023/07/29 02:59:11;;;;;;;4.40;4.10;;;19.10;99.90;;;;;;5012670;28;20176;-73
2023/07/29 03:01:37;;;;;;;6.37;4.77;;;19.10;99.90;;;;;;5012524;28;20727;-73
2023/07/29 03:04:03;;;;;;;4.70;4.40;;;19.10;99.90;;;;;;5012678;28;20689;-73
2023/07/29 03:06:28;;;;;;;5.40;4.50;;;19.00;99.90;;;;;;5011349;28;20203;-73
2023/07/29 03:08:54;;;;;;;4.63;4.33;;;19.00;99.90;;;;;;5011560;28;20176;-73
2023/07/29 03:11:20;;;;;;;4.37;4.00;;;19.10;99.90;;;;;;5011378;28;20172;-73
2023/07/29 03:13:46;;;;;;;6.57;4.77;;;19.10;99.90;;;;;;5012306;28;20184;-73
2023/07/29 03:16:14;;;;;;;4.23;3.93;;;19.00;99.90;;;;;;5012311;28;20172;-72
2023/07/29 03:18:40;;;;;;;5.33;4.67;;;19.00;99.90;;;;;;5011454;28;20652;-72
2023/07/29 03:21:06;;;;;;;5.70;4.80;;;19.00;99.90;;;;;;5012119;28;20249;-73
2023/07/29 03:23:33;;;;;;;6.40;4.80;;;19.00;99.90;;;;;;5012175;28;20645;-73
2023/07/29 03:25:59;;;;;;;6.50;4.30;;;19.00;99.90;;;;;;5012506;28;20176;-73
2023/07/29 03:28:29;;;;;;;4.83;4.43;;;19.00;99.90;;;;;;5012121;28;20191;-73
2023/07/29 03:30:58;;;;;;;4.73;4.23;;;19.00;99.90;;;;;;5010699;28;20172;-73
2023/07/29 03:33:25;;;;;;;8.17;4.17;;;19.00;99.90;;;;;;5010048;28;20207;-73
2023/07/29 03:35:51;;;;;;;6.63;4.83;;;18.90;99.90;;;;;;5010741;28;20231;-73
2023/07/29 03:38:17;;;;;;;4.60;4.20;;;19.00;99.90;;;;;;5012054;28;20537;-73
2023/07/29 03:40:43;;;;;;;5.63;4.57;;;19.00;99.90;;;;;;5010791;28;20202;-72
2023/07/29 03:43:09;;;;;;;4.43;4.13;;;19.00;99.90;;;;;;5010727;28;20634;-73
2023/07/29 03:45:36;;;;;;;7.73;4.67;;;18.90;99.90;;;;;;5010864;28;20204;-72
2023/07/29 03:48:02;;;;;;;4.83;4.43;;;18.90;99.90;;;;;;5011826;28;20203;-72
2023/07/29 03:50:29;;;;;;;5.77;4.33;;;18.90;99.90;;;;;;5012030;28;20887;-72
2023/07/29 03:52:55;;;;;;;6.57;4.83;;;18.90;99.90;;;;;;5010406;28;20222;-72
2023/07/29 03:55:21;;;;;;;4.80;4.40;;;18.80;99.90;;;;;;5010677;28;20176;-72
2023/07/29 03:57:46;;;;;;;6.87;4.93;;;18.80;99.90;;;;;;5011901;28;20179;-72
2023/07/29 04:00:12;;;;;;;5.47;4.43;;;18.70;99.90;;;;;;5010758;28;20547;-72
2023/07/29 04:02:38;;;;;;;4.37;4.07;;;18.70;99.90;;;;;;5011009;28;20177;-72
2023/07/29 04:05:05;;;;;;;5.20;4.70;;;18.60;99.90;;;;;;5014395;28;20620;-72
2023/07/29 04:07:31;;;;;;;5.10;4.73;;;18.60;99.90;;;;;;5014422;28;20297;-72
2023/07/29 04:09:57;;;;;;;6.73;4.47;;;18.60;99.90;;;;;;5016095;28;20207;-72
2023/07/29 04:12:23;;;;;;;4.83;4.53;;;18.50;99.90;;;;;;5013730;28;20600;-72
2023/07/29 04:14:49;;;;;;;6.03;4.17;;;18.50;99.90;;;;;;5013937;28;20422;-73
2023/07/29 04:17:15;;;;;;;5.23;4.83;;;18.50;99.90;;;;;;5013914;28;20184;-72
2023/07/29 04:19:40;;;;;;;5.63;4.60;;;18.50;99.90;;;;;;5014385;28;20271;-73
2023/07/29 04:22:06;;;;;;;6.73;4.63;;;18.50;99.90;;;;;;5014773;28;20200;-73
2023/07/29 04:24:32;;;;;;;5.03;4.50;;;18.50;99.90;;;;;;5014969;28;20689;-73
2023/07/29 04:26:57;;;;;;;6.50;4.70;;;18.50;99.90;;;;;;5014332;28;20291;-73
2023/07/29 04:29:23;;;;;;;4.87;4.40;;;18.50;99.90;;;;;;5014288;28;20172;-73
2023/07/29 04:31:50;;;;;;;5.07;4.40;;;18.50;99.90;;;;;;5014112;28;20255;-73
2023/07/29 04:34:17;;;;;;;5.83;4.70;;;18.50;99.90;;;;;;5014033;28;20250;-73
2023/07/29 04:36:42;;;;;;;5.40;4.90;;;18.50;99.90;;;;;;5015253;28;20520;-73
2023/07/29 04:39:08;;;;;;;8.00;5.30;;;18.50;99.90;;;;;;5014741;28;20199;-73
2023/07/29 04:41:34;;;;;;;5.73;4.87;;;18.40;99.90;;;;;;5013308;28;20188;-73
2023/07/29 04:44:00;;;;;;;5.43;4.80;;;18.50;99.90;;;;;;5013440;28;20729;-73
2023/07/29 04:46:26;;;;;;;6.23;5.73;;;18.50;99.90;;;;;;5014931;28;20204;-74
2023/07/29 04:48:51;;;;;;;5.43;5.03;;;18.50;99.90;;;;;;5015046;28;20234;-73
2023/07/29 04:51:17;;;;;;;5.43;4.93;;;18.50;99.90;;;;;;5014222;28;20508;-74
2023/07/29 04:53:42;;;;;;;5.53;5.13;;;18.60;99.90;;;;;;5013391;28;20196;-73
2023/07/29 04:56:08;;;;;;;7.60;6.00;;;18.70;99.90;;;;;;5014830;28;20164;-73
2023/07/29 04:58:35;;;;;;;5.33;4.93;;;18.70;99.90;;;;;;5013267;28;20715;-73
2023/07/29 05:01:01;;;;;;;5.80;5.20;;;18.70;99.90;;;;;;5014424;28;20164;-73
2023/07/29 05:03:27;;;;;;;5.37;4.97;;;18.80;99.90;;;;;;5013026;28;20712;-73
2023/07/29 05:05:54;;;;;;;5.60;5.20;;;18.70;99.90;;;;;;5013580;28;20172;-73
2023/07/29 05:08:20;;;;;;;5.80;5.07;;;18.70;99.90;;;;;;5011869;28;20172;-73
2023/07/29 05:10:50;;;;;;;8.23;6.00;;;18.70;99.90;;;;;;5011979;28;20175;-71
2023/07/29 05:13:15;;;;;;;5.67;5.17;;;18.80;99.90;;;;;;5012820;28;20191;-72
2023/07/29 05:15:41;;;;;;;5.77;5.17;;;18.80;99.90;;;;;;5012147;28;20176;-72
2023/07/29 05:18:07;;;;;;;5.40;5.00;;;18.70;99.90;;;;;;5012293;28;20226;-71
2023/07/29 05:20:32;;;;;;;5.03;4.60;;;18.60;99.90;;;;;;5013586;28;20180;-72
2023/07/29 05:22:58;;;;;;;5.33;4.93;;;18.50;99.90;;;;;;5011494;28;20263;-72
2023/07/29 05:25:24;;;;;;;7.07;4.97;;;18.50;99.90;;;;;;5012643;28;20176;-71
2023/07/29 05:27:49;;;;;;;5.03;4.63;;;18.40;99.90;;;;;;5012712;28;20208;-72
2023/07/29 05:30:15;;;;;;;4.90;4.50;;;18.40;99.90;;;;;;5013548;28;20223;-71
2023/07/29 05:32:40;;;;;;;5.10;4.60;;;18.40;99.90;;;;;;5011879;28;20191;-72
2023/07/29 05:35:06;;;;;;;5.23;4.83;;;18.30;99.90;;;;;;5013545;28;20235;-71
2023/07/29 05:37:32;;;;;;;4.70;4.30;;;18.30;99.90;;;;;;5012300;28;20719;-71
2023/07/29 05:39:58;;;;;;;6.97;5.07;;;18.30;99.90;;;;;;5012553;28;20176;-72
2023/07/29 05:42:24;;;;;;;5.17;4.67;;;18.30;99.90;;;;;;5012767;28;20271;-71
2023/07/29 05:44:49;;;;;;;5.07;4.67;;;18.40;99.90;;;;;;5014575;28;20341;-71
2023/07/29 05:47:15;;;;;;;5.20;4.80;;;18.30;99.90;;;;;;5013659;28;20618;-71
2023/07/29 05:49:41;;;;;;;5.23;4.77;;;18.30;99.90;;;;;;5014176;28;20648;-72
2023/07/29 05:52:07;;;;;;;5.50;5.10;;;18.40;99.90;;;;;;5013748;28;20180;-73
2023/07/29 05:54:33;;;;;;;5.20;4.90;;;18.40;99.90;;;;;;5014016;28;20202;-72
2023/07/29 05:56:58;;;;;;;4.50;4.20;;;18.40;99.90;;;;;;5013336;28;20172;-72
2023/07/29 05:59:24;;;;;;;4.47;4.07;;;18.40;99.90;;;;;;5012440;28;20180;-72
2023/07/29 06:01:49;;;;;;;4.53;4.03;;;18.40;99.90;;;;;;5012974;28;20255;-73
2023/07/29 06:04:15;;;;;;;4.27;3.97;;;18.40;99.90;;;;;;5011586;28;20572;-72
2023/07/29 06:06:41;;;;;;;3.80;3.60;;;18.40;99.90;;;;;;5006730;28;20208;-71
2023/07/29 06:09:06;;;;;;;3.80;3.53;;;18.40;99.90;;;;;;5012354;28;20184;-72
2023/07/29 06:11:32;;;;;;;4.20;3.90;;;18.40;99.90;;;;;;5012862;28;20168;-72
2023/07/29 06:13:57;;;;;;;4.10;3.80;;;18.40;99.90;;;;;;5012595;28;20444;-72
2023/07/29 06:16:23;;;;;;;3.53;3.33;;;18.50;99.90;;;;;;5011637;28;20263;-72
2023/07/29 06:18:49;;;;;;;4.90;3.90;;;18.40;99.90;;;;;;5011779;28;20187;-72
2023/07/29 06:21:16;;;;;;;3.73;3.43;;;18.50;99.90;;;;;;5011207;28;20225;-73
2023/07/29 06:23:43;;;;;;;3.70;3.47;;;18.50;99.90;;;;;;5009337;28;20223;-72
2023/07/29 06:26:09;;;;;;;4.03;3.73;;;18.50;99.90;;;;;;5010633;28;20665;-72
2023/07/29 06:28:34;;;;;;;3.83;3.50;;;18.50;99.90;;;;;;5012546;28;20176;-73
2023/07/29 06:31:00;;;;;;;3.93;3.50;;;18.50;99.90;;;;;;5012634;28;20208;-73
2023/07/29 06:33:29;;;;;;;3.90;3.60;;;18.50;99.90;;;;;;5012013;28;20287;-72
2023/07/29 06:35:54;;;;;;;4.13;3.77;;;18.50;99.90;;;;;;5012328;28;20168;-72
2023/07/29 06:38:21;;;;;;;4.00;3.70;;;18.50;99.90;;;;;;5012326;28;20172;-73
2023/07/29 06:40:48;;;;;;;5.10;3.70;;;18.50;99.90;;;;;;5011205;28;20172;-74
2023/07/29 06:43:14;;;;;;;3.73;3.47;;;18.60;99.90;;;;;;5010197;28;20206;-73
2023/07/29 06:45:39;;;;;;;3.73;3.27;;;18.60;99.90;;;;;;5012691;28;20165;-74
2023/07/29 06:48:05;;;;;;;7.20;3.57;;;18.70;99.90;;;;;;5012392;28;20207;-72
2023/07/29 06:50:31;;;;;;;4.13;3.73;;;18.70;99.90;;;;;;5010892;28;20176;-72
2023/07/29 06:52:56;;;;;;;3.87;3.57;;;18.70;99.90;;;;;;5011743;28;20263;-72
2023/07/29 06:55:22;;;;;;;3.80;3.50;;;18.90;99.90;;;;;;5010855;28;20172;-72
2023/07/29 06:57:47;;;;;;;4.10;3.43;;;19.00;99.90;;;;;;5012349;28;20180;-72
2023/07/29 07:00:13;;;;;;;3.73;3.43;;;19.20;99.90;;;;;;5012412;28;20656;-72
2023/07/29 07:02:39;;;;;;;4.83;3.17;;;19.40;99.90;;;;;;5010637;28;20724;-72
2023/07/29 07:05:05;;;;;;;4.27;3.40;;;19.50;99.90;;;;;;5012237;28;20199;-72
2023/07/29 07:07:31;;;;;;;3.63;2.80;;;19.60;99.90;;;;;;5010264;28;20212;-72
2023/07/29 07:09:56;;;;;;;3.27;2.97;;;19.70;99.90;;;;;;5010730;28;20173;-73
2023/07/29 07:12:22;;;;;;;3.10;2.90;;;19.90;99.90;;;;;;5011223;28;20646;-73
2023/07/29 07:14:48;;;;;;;4.23;3.00;;;20.10;99.90;;;;;;5012092;28;20192;-73
2023/07/29 07:17:13;;;;;;;6.73;3.50;;;20.70;99.90;;;;;;5011603;28;20248;-73
2023/07/29 07:19:39;;;;;;;3.27;3.07;;;21.00;99.90;;;;;;5010647;28;20228;-73
2023/07/29 07:22:05;;;;;;;3.00;2.77;;;21.20;99.90;;;;;;5011504;28;20177;-74
2023/07/29 07:24:31;;;;;;;2.95;2.78;;;21.40;99.90;;;;;;5010853;28;20262;-73
2023/07/29 07:26:56;;;;;;;3.20;2.90;;;21.30;99.90;;;;;;5011402;28;20204;-72
2023/07/29 07:29:22;;;;;;;6.10;3.40;;;21.40;99.90;;;;;;5011412;28;20745;-72
2023/07/29 07:31:52;;;;;;;2.60;2.50;;;21.30;99.90;;;;;;5011553;28;20160;-72
2023/07/29 07:34:19;;;;;;;2.80;2.60;;;21.30;99.90;;;;;;5009052;28;20203;-73
2023/07/29 07:36:45;;;;;;;2.65;2.30;;;21.50;99.90;;;;;;5010526;28;20207;-72
2023/07/29 07:39:10;;;;;;;2.87;2.60;;;21.70;99.90;;;;;;5014077;28;20179;-72
2023/07/29 07:41:36;;;;;;;3.97;2.80;;;21.90;99.90;;;;;;5015664;28;20207;-71
2023/07/29 07:44:02;;;;;;;5.63;2.47;;;22.00;99.90;;;;;;5014155;28;20295;-71
2023/07/29 07:46:28;;;;;;;2.60;2.40;;;21.90;99.90;;;;;;5015462;28;20210;-71
2023/07/29 07:48:54;;;;;;;2.77;2.63;;;21.80;99.90;;;;;;5015769;28;20705;-72
2023/07/29 07:51:20;;;;;;;2.83;2.63;;;21.70;99.90;;;;;;5013696;28;20275;-72
2023/07/29 07:53:45;;;;;;;2.57;2.37;;;21.60;99.90;;;;;;5015434;28;20192;-71
2023/07/29 07:56:11;;;;;;;2.80;2.60;;;21.50;99.90;;;;;;5013965;28;20176;-71
2023/07/29 07:58:37;;;;;;;2.67;2.47;;;21.50;99.90;;;;;;5013954;28;20672;-71
2023/07/29 08:01:07;;;;;;;3.00;2.80;;;21.50;99.90;;;;;;5013702;28;20172;-71
2023/07/29 08:03:33;;;;;;;4.30;2.67;;;21.50;99.90;;;;;;5015080;28;20180;-71
2023/07/29 08:05:59;;;;;;;3.57;2.70;;;21.50;99.90;;;;;;5015296;28;20191;-71
2023/07/29 08:08:26;;;;;;;3.47;2.90;;;21.80;99.90;;;;;;5015066;28;20665;-71
2023/07/29 08:10:56;;;;;;;2.70;2.50;;;22.50;99.90;;;;;;5015571;28;20164;-71
2023/07/29 08:13:23;;;;;;;2.35;2.25;;;23.20;99.90;;;;;;5013467;28;20202;-71
2023/07/29 08:15:50;;;;;;;2.78;2.65;;;24.10;99.90;;;;;;5015873;28;20233;-72
2023/07/29 08:18:16;;;;;;;3.67;2.45;;;24.50;99.90;;;;;;5013816;28;20226;-72
2023/07/29 08:20:53;;;;;;;2.50;2.40;;;24.40;99.90;;;;;;5015095;28;20215;-72
2023/07/29 08:23:18;;;;;;;2.47;2.33;;;24.30;99.90;;;;;;5013152;28;20211;-72
2023/07/29 08:25:44;;;;;;;2.47;2.38;;;24.50;99.90;;;;;;5013702;28;20253;-72
2023/07/29 08:28:12;;;;;;;3.13;2.90;;;24.60;99.90;;;;;;5013712;28;20208;-71
2023/07/29 08:30:46;;;;;;;2.22;2.13;;;24.60;99.90;;;;;;5014785;28;20176;-71
2023/07/29 08:33:12;;;;;;;2.40;2.20;;;24.90;99.90;;;;;;5013177;28;20821;-72
2023/07/29 08:35:38;;;;;;;2.60;2.50;;;25.20;99.90;;;;;;5014841;28;20259;-72
2023/07/29 08:38:04;;;;;;;2.50;2.30;;;25.00;99.90;;;;;;5013472;28;20190;-72
2023/07/29 08:40:31;;;;;;;2.40;2.20;;;25.00;99.90;;;;;;5013639;28;20341;-73
2023/07/29 08:43:02;;;;;;;3.15;2.15;;;24.80;99.90;;;;;;5013546;28;20176;-73
2023/07/29 08:45:29;;;;;;;2.50;2.30;;;24.60;99.90;;;;;;5013703;28;20537;-72
2023/07/29 08:47:58;;;;;;;2.70;2.50;;;24.40;99.90;;;;;;5014879;28;20203;-72
2023/07/29 08:50:24;;;;;;;3.08;2.50;;;24.20;99.90;;;;;;5013285;28;20181;-72
2023/07/29 08:52:52;;;;;;;2.40;2.22;;;24.10;99.90;;;;;;5013044;28;20176;-72
2023/07/29 08:55:19;;;;;;;2.40;2.00;;;23.90;99.90;;;;;;5014521;28;20199;-72
2023/07/29 08:57:45;;;;;;;2.33;2.13;;;23.60;99.90;;;;;;5013186;28;20232;-70
2023/07/29 09:00:14;;;;;;;2.15;2.05;;;23.40;99.90;;;;;;5014297;28;20179;-72
2023/07/29 09:02:40;;;;;;;2.30;2.20;;;23.30;99.90;;;;;;5012871;28;20203;-71
2023/07/29 09:05:05;;;;;;;2.30;2.20;;;23.10;99.90;;;;;;5014074;28;20250;-72
2023/07/29 09:07:34;;;;;;;3.42;2.33;;;23.00;99.90;;;;;;5014159;28;20274;-72
2023/07/29 09:10:02;;;;;;;4.63;2.38;;;23.00;99.90;;;;;;5013107;28;20172;-71
2023/07/29 09:12:28;;;;;;;2.95;2.75;;;23.00;99.90;;;;;;5014583;28;20179;-71
2023/07/29 09:14:57;;;;;;;2.33;2.20;;;23.00;99.90;;;;;;5019995;28;20199;-74
2023/07/29 09:17:22;;;;;;;2.03;1.92;;;23.20;99.90;;;;;;5015318;28;20175;-71
2023/07/29 09:20:12;;;;;;;2.20;2.10;;;23.50;99.90;;;;;;5016087;28;20650;-70
2023/07/29 09:22:38;;;;;;;2.38;2.28;;;23.50;99.90;;;;;;5017604;28;20196;-70
2023/07/29 09:25:03;;;;;;;2.65;2.55;;;23.50;99.90;;;;;;5013415;28;20227;-71
2023/07/29 09:27:31;;;;;;;2.45;2.25;;;23.50;99.90;;;;;;5012217;28;20648;-71
2023/07/29 09:29:57;;;;;;;2.90;2.15;;;23.70;99.90;;;;;;5013825;28;20226;-70
2023/07/29 09:32:24;;;;;;;3.40;2.42;;;24.20;99.90;;;;;;5013147;28;20177;-70
2023/07/29 09:34:51;;;;;;;2.80;2.60;;;24.60;99.90;;;;;;5013847;28;20720;-72
2023/07/29 09:37:26;;;;;;;2.50;2.38;;;24.90;99.90;;;;;;5013695;28;20175;-72
2023/07/29 09:39:51;;;;;;;2.75;2.55;;;24.70;99.90;;;;;;5014046;28;20168;-72
2023/07/29 09:42:22;;;;;;;2.30;2.10;;;24.60;99.90;;;;;;5013244;28;20660;-71
2023/07/29 09:44:53;;;;;;;2.95;2.10;;;24.50;99.90;;;;;;5013627;28;20208;-73
2023/07/29 09:47:24;;;;;;;2.40;2.20;;;24.40;99.90;;;;;;5013347;28;20616;-72
2023/07/29 09:49:50;;;;;;;2.20;2.10;;;24.40;99.90;;;;;;5013574;28;20172;-72
2023/07/29 09:52:17;;;;;;;3.17;2.97;;;24.60;99.90;;;;;;5012178;28;20176;-71
2023/07/29 09:54:44;;;;;;;2.60;2.50;;;24.70;99.90;;;;;;5014952;28;20192;-72
2023/07/29 09:57:13;;;;;;;3.17;2.60;;;24.70;99.90;;;;;;5013326;28;20642;-72
2023/07/29 09:59:39;;;;;;;2.80;2.60;;;24.50;99.90;;;;;;5011725;28;20191;-71
2023/07/29 10:02:12;;;;;;;3.20;3.00;;;24.40;99.90;;;;;;5012053;28;20177;-72
2023/07/29 10:04:39;;;;;;;4.55;3.58;;;24.30;99.90;;;;;;5011551;28;20199;-72
2023/07/29 10:07:05;;;;;;;2.78;2.58;;;24.20;99.90;;;;;;5013631;28;20207;-70
2023/07/29 10:09:32;;;;;;;2.88;2.70;;;24.20;99.90;;;;;;5011128;28;20187;-71
2023/07/29 10:11:58;;;;;;;2.40;2.20;;;24.10;99.90;;;;;;4995629;28;20548;-72
2023/07/29 10:14:27;;;;;;;2.58;2.47;;;23.80;99.90;;;;;;5011496;28;20546;-73
2023/07/29 10:16:53;;;;;;;3.55;2.85;;;23.60;99.90;;;;;;5013123;28;20646;-73
2023/07/29 10:19:20;;;;;;;2.97;2.78;;;23.40;99.90;;;;;;5011320;28;20180;-72
2023/07/29 10:21:50;;;;;;;2.70;2.60;;;23.10;99.90;;;;;;5011152;28;20186;-71
2023/07/29 10:24:20;;;;;;;3.03;2.83;;;22.90;99.90;;;;;;5011286;28;20270;-72
2023/07/29 10:26:48;;;;;;;2.90;2.70;;;22.90;99.90;;;;;;5012038;28;20643;-72
2023/07/29 10:29:18;;;;;;;3.00;2.78;;;22.90;99.90;;;;;;5012776;28;20258;-71
2023/07/29 10:31:45;;;;;;;2.30;2.10;;;23.00;99.90;;;;;;5011251;28;20263;-72
2023/07/29 10:34:12;;;;;;;2.47;2.28;;;23.00;99.90;;;;;;5012637;28;20224;-72
2023/07/29 10:36:41;;;;;;;2.88;2.20;;;22.90;99.90;;;;;;5012654;28;20172;-73
2023/07/29 10:39:07;;;;;;;2.88;2.50;;;23.00;99.90;;;;;;5011310;28;20271;-71
2023/07/29 10:42:02;;;;;;;2.50;2.35;;;23.00;99.90;;;;;;5010918;28;20731;-72
2023/07/29 10:44:41;;;;;;;4.13;2.55;;;23.10;99.90;;;;;;5012578;28;20200;-73
2023/07/29 10:47:14;;;;;;;2.33;2.22;;;23.50;99.90;;;;;;5012664;28;20207;-72
2023/07/29 10:49:42;;;;;;;2.40;2.30;;;23.80;99.90;;;;;;5011701;28;20203;-73
2023/07/29 10:52:27;;;;;;;2.95;2.60;;;23.70;99.90;;;;;;5012247;28;20164;-73
2023/07/29 10:54:53;;;;;;;4.70;2.90;;;23.90;99.90;;;;;;5012332;28;20192;-71
2023/07/29 10:57:31;;;;;;;3.75;3.10;;;24.10;99.90;;;;;;5012483;28;20186;-69
2023/07/29 10:59:57;;;;;;;2.55;2.45;;;24.20;99.90;;;;;;5012201;28;20171;-71
2023/07/29 11:02:29;;;;;;;4.13;3.72;;;24.10;99.90;;;;;;5009571;28;20661;-69
2023/07/29 11:04:55;;;;;;;2.95;2.65;;;24.10;99.90;;;;;;5011172;28;20192;-73
2023/07/29 11:07:27;;;;;;;2.85;2.65;;;24.40;99.90;;;;;;5009676;28;20207;-71
2023/07/29 11:09:58;;;;;;;2.47;2.28;;;24.70;99.90;;;;;;5011845;28;20332;-72
2023/07/29 11:12:47;;;;;;;3.42;2.85;;;25.20;99.90;;;;;;5010144;28;20182;-71
2023/07/29 11:15:24;;;;;;;6.53;2.95;;;25.60;99.90;;;;;;5012032;28;20179;-70
2023/07/29 11:18:09;;;;;;;2.90;2.70;;;25.60;99.90;;;;;;5011854;28;20187;-71
2023/07/29 11:20:35;;;;;;;2.80;2.60;;;25.90;99.90;;;;;;5012345;28;20609;-71
2023/07/29 11:23:03;;;;;;;4.50;2.80;;;26.10;99.90;;;;;;5011561;28;20176;-72
2023/07/29 11:25:30;;;;;;;4.30;4.03;;;26.40;99.90;;;;;;5010624;28;20753;-68
2023/07/29 11:27:58;;;;;;;5.40;5.07;;;26.80;99.90;;;;;;5011817;28;20203;-71
2023/07/29 11:30:27;;;;;;;5.55;5.22;;;26.70;99.90;;;;;;5010780;28;20187;-71
2023/07/29 11:32:54;;;;;;;3.08;2.88;;;26.70;99.90;;;;;;5011691;28;20160;-72
2023/07/29 11:35:20;;;;;;;4.82;4.53;;;26.80;99.90;;;;;;5009991;28;20176;-71
2023/07/29 11:37:47;;;;;;;4.18;3.90;;;26.60;99.90;;;;;;5011733;28;20582;-70
2023/07/29 11:40:17;;;;;;;4.40;4.20;;;26.30;99.90;;;;;;5009069;28;20180;-70
2023/07/29 11:42:44;;;;;;;3.75;3.55;;;26.10;99.90;;;;;;5011525;28;20591;-71
2023/07/29 11:45:10;;;;;;;4.55;4.35;;;26.50;99.90;;;;;;5007074;28;20184;-71
2023/07/29 11:47:36;;;;;;;2.35;2.22;;;26.70;99.90;;;;;;5010863;28;20673;-71
2023/07/29 11:50:09;;;;;;;2.20;2.10;;;26.70;99.90;;;;;;5009743;28;20269;-71
2023/07/29 11:52:36;;;;;;;2.92;2.72;;;26.60;99.90;;;;;;5010824;28;20172;-70
2023/07/29 11:55:03;;;;;;;3.97;3.53;;;26.00;99.90;;;;;;5010074;28;20192;-71
2023/07/29 11:57:38;;;;;;;2.65;2.55;;;25.60;99.90;;;;;;5009983;28;20597;-70
2023/07/29 12:00:06;;;;;;;2.95;2.75;;;25.30;99.90;;;;;;5011928;28;20186;-70
2023/07/29 12:02:36;;;;;;;3.53;3.38;;;25.40;99.90;;;;;;5009764;28;20234;-69
2023/07/29 12:05:04;;;;;;;2.10;2.00;;;25.30;99.90;;;;;;5010065;28;20748;-71
2023/07/29 12:07:30;;;;;;;2.58;2.38;;;25.00;99.90;;;;;;5010858;28;20741;-69
2023/07/29 12:09:56;;;;;;;2.75;2.58;;;25.00;99.90;;;;;;5011157;28;20243;-71
2023/07/29 12:12:23;;;;;;;2.75;2.58;;;24.80;99.90;;;;;;5009930;28;20196;-69
2023/07/29 12:14:48;;;;;;;3.47;3.17;;;25.00;99.90;;;;;;5011486;28;20678;-72
2023/07/29 12:17:15;;;;;;;3.63;3.15;;;25.20;99.90;;;;;;5011171;28;20195;-71
2023/07/29 12:19:42;;;;;;;3.80;3.50;;;25.30;99.90;;;;;;5011455;28;20176;-71
2023/07/29 12:22:09;;;;;;;3.42;3.22;;;25.20;99.90;;;;;;5010883;28;20251;-71
2023/07/29 12:24:40;;;;;;;14.35;3.88;;;25.20;99.90;;;;;;5012359;28;20231;-70
2023/07/29 12:27:11;;;;;;;2.67;2.47;;;25.60;99.90;;;;;;5014740;28;20196;-70
2023/07/29 12:29:40;;;;;;;5.68;2.45;;;25.80;99.90;;;;;;5014944;28;20206;-70
2023/07/29 12:32:06;;;;;;;2.90;2.70;;;26.10;99.90;;;;;;5014613;28;20176;-70
2023/07/29 12:34:32;;;;;;;2.75;2.55;;;26.80;99.90;;;;;;5014844;28;20192;-70
2023/07/29 12:36:59;;;;;;;3.03;2.83;;;27.50;99.90;;;;;;5013596;28;20613;-70
2023/07/29 12:39:26;;;;;;;2.80;2.70;;;28.30;99.90;;;;;;5014585;28;20652;-70
2023/07/29 12:41:58;;;;;;;2.72;2.53;;;28.60;99.90;;;;;;5014783;28;20176;-71
2023/07/29 12:44:25;;;;;;;3.05;2.85;;;28.50;99.90;;;;;;5013417;28;20204;-70
2023/07/29 12:46:51;;;;;;;3.35;3.15;;;28.10;99.90;;;;;;5013700;28;20200;-71
2023/07/29 12:49:17;;;;;;;5.20;4.90;;;27.50;99.90;;;;;;5014030;28;20176;-71